createdAt,value
2022-12-11T00:00:45.109Z,95897.81
2022-12-11T00:03:15.859Z,95903.09
2022-12-11T00:05:44.191Z,95903.78
2022-12-11T00:08:11.744Z,95905.50
2022-12-11T00:10:38.497Z,95902.91
2022-12-11T00:13:05.063Z,95892.91
2022-12-11T00:15:31.453Z,95898.09
2022-12-11T00:17:57.824Z,95898.00
2022-12-11T00:20:24.742Z,95896.38
2022-12-11T00:22:51.226Z,95896.16
2022-12-11T00:25:17.646Z,95893.66
2022-12-11T00:27:46.590Z,95896.84
2022-12-11T00:30:14.231Z,95905.19
2022-12-11T00:32:40.752Z,95900.16
2022-12-11T00:35:07.471Z,95909.38
2022-12-11T00:37:34.132Z,95916.94
2022-12-11T00:40:00.669Z,95915.19
2022-12-11T00:42:27.013Z,95917.66
2022-12-11T00:44:54.802Z,95917.59
2022-12-11T00:47:21.214Z,95925.88
2022-12-11T00:49:49.989Z,95923.22
2022-12-11T00:52:17.846Z,95919.00
2022-12-11T00:54:45.496Z,95926.44
2022-12-11T00:57:11.960Z,95921.06
2022-12-11T00:59:38.629Z,95923.78
2022-12-11T01:02:04.991Z,95934.66
2022-12-11T01:04:31.409Z,95932.00
2022-12-11T01:06:57.778Z,95935.25
2022-12-11T01:09:53.372Z,95942.94
2022-12-11T01:12:19.803Z,95947.25
2022-12-11T01:14:46.251Z,95949.94
2022-12-11T01:17:12.601Z,95946.56
2022-12-11T01:19:39.027Z,95951.69
2022-12-11T01:22:05.442Z,95948.31
2022-12-11T01:24:31.849Z,95951.88
2022-12-11T01:26:58.217Z,95953.59
2022-12-11T01:29:24.662Z,95948.69
2022-12-11T01:31:51.015Z,95951.13
2022-12-11T01:34:17.368Z,95954.47
2022-12-11T01:36:43.738Z,95950.34
2022-12-11T01:39:10.077Z,95954.63
2022-12-11T01:41:36.450Z,95952.94
2022-12-11T01:44:07.422Z,95952.94
2022-12-11T01:46:36.436Z,95957.03
2022-12-11T01:49:07.215Z,95951.13
2022-12-11T01:51:39.599Z,95945.25
2022-12-11T01:54:08.994Z,95941.66
2022-12-11T01:56:37.907Z,95935.53
2022-12-11T01:59:07.429Z,95946.84
2022-12-11T02:01:40.719Z,95949.94
2022-12-11T02:04:08.586Z,95953.03
2022-12-11T02:06:44.799Z,95954.44
2022-12-11T02:09:17.407Z,95953.31
2022-12-11T02:12:26.300Z,95956.38
2022-12-11T02:15:22.857Z,95956.19
2022-12-11T02:18:11.087Z,95960.94
2022-12-11T02:20:40.304Z,95955.53
2022-12-11T02:23:12.778Z,95953.81
2022-12-11T02:26:04.079Z,95953.41
2022-12-11T02:28:43.609Z,95951.53
2022-12-11T02:31:28.507Z,95954.41
2022-12-11T02:34:08.436Z,95945.19
2022-12-11T02:36:40.145Z,95946.03
2022-12-11T02:39:12.242Z,95940.81
2022-12-11T02:41:46.608Z,95938.16
2022-12-11T02:44:15.885Z,95935.53
2022-12-11T02:46:44.226Z,95926.81
2022-12-11T02:49:13.448Z,95934.19
2022-12-11T02:51:42.244Z,95932.41
2022-12-11T02:54:31.767Z,95911.91
2022-12-11T02:57:06.235Z,95925.91
2022-12-11T02:59:42.398Z,95926.56
2022-12-11T03:02:08.969Z,95922.31
2022-12-11T03:04:36.429Z,95924.69
2022-12-11T03:07:15.731Z,95929.50
2022-12-11T03:09:44.635Z,95930.00
2022-12-11T03:12:15.018Z,95935.91
2022-12-11T03:14:42.485Z,95928.13
2022-12-11T03:17:17.146Z,95931.59
2022-12-11T03:19:48.281Z,95935.03
2022-12-11T03:22:17.698Z,95932.28
2022-12-11T03:24:55.330Z,95936.31
2022-12-11T03:27:32.975Z,95937.94
2022-12-11T03:30:07.781Z,95927.69
2022-12-11T03:32:44.491Z,95942.06
2022-12-11T03:35:18.593Z,95941.03
2022-12-11T03:37:48.099Z,95951.94
2022-12-11T03:40:17.377Z,95944.19
2022-12-11T03:42:46.847Z,95954.31
2022-12-11T03:45:14.632Z,95965.13
2022-12-11T03:47:42.192Z,95955.78
2022-12-11T03:50:10.582Z,95951.03
2022-12-11T03:52:45.354Z,95938.28
2022-12-11T03:55:15.078Z,95947.78
2022-12-11T03:57:41.459Z,95949.38
2022-12-11T04:00:12.209Z,95944.25
2022-12-11T04:02:39.006Z,95940.34
2022-12-11T04:05:05.834Z,95941.78
2022-12-11T04:07:32.502Z,95949.31
2022-12-11T04:09:59.078Z,95950.75
2022-12-11T04:12:25.520Z,95934.59
2022-12-11T04:15:03.686Z,95945.69
2022-12-11T04:17:54.467Z,95944.88
2022-12-11T04:20:39.749Z,95958.41
2022-12-11T04:23:30.090Z,95951.72
2022-12-11T04:26:22.516Z,95951.56
2022-12-11T04:28:49.476Z,95954.84
2022-12-11T04:31:19.478Z,95953.13
2022-12-11T04:33:46.544Z,95948.88
2022-12-11T04:36:14.046Z,95954.09
2022-12-11T04:38:40.988Z,95959.41
2022-12-11T04:41:12.146Z,95959.59
2022-12-11T04:43:38.987Z,95960.03
2022-12-11T04:46:12.618Z,95952.91
2022-12-11T04:48:39.816Z,95952.13
2022-12-11T04:51:07.115Z,95947.56
2022-12-11T04:53:33.754Z,95951.59
2022-12-11T04:56:00.155Z,95947.66
2022-12-11T04:58:26.738Z,95950.34
2022-12-11T05:00:53.890Z,95954.53
2022-12-11T05:03:20.532Z,95945.94
2022-12-11T05:05:53.689Z,95943.97
2022-12-11T05:08:21.343Z,95946.81
2022-12-11T05:10:57.800Z,95946.53
2022-12-11T05:13:25.124Z,95943.22
2022-12-11T05:15:51.618Z,95937.16
2022-12-11T05:18:18.208Z,95935.34
2022-12-11T05:20:45.146Z,95938.84
2022-12-11T05:23:11.725Z,95929.38
2022-12-11T05:25:38.132Z,95928.56
2022-12-11T05:28:04.564Z,95937.84
2022-12-11T05:30:32.366Z,95941.63
2022-12-11T05:32:58.770Z,95937.75
2022-12-11T05:35:25.219Z,95937.22
2022-12-11T05:37:51.566Z,95940.88
2022-12-11T05:40:18.076Z,95938.75
2022-12-11T05:42:44.431Z,95938.19
2022-12-11T05:45:11.458Z,95937.72
2022-12-11T05:47:38.017Z,95927.44
2022-12-11T05:50:04.527Z,95931.31
2022-12-11T05:52:31.759Z,95938.69
2022-12-11T05:54:58.086Z,95937.50
2022-12-11T05:57:24.453Z,95933.13
2022-12-11T05:59:50.789Z,95933.19
2022-12-11T06:02:17.217Z,95932.75
2022-12-11T06:04:43.615Z,95934.25
2022-12-11T06:07:10.036Z,95938.47
2022-12-11T06:09:36.360Z,95927.06
2022-12-11T06:12:02.783Z,95929.66
2022-12-11T06:14:29.243Z,95938.00
2022-12-11T06:16:55.585Z,95937.44
2022-12-11T06:19:22.421Z,95939.72
2022-12-11T06:21:48.894Z,95937.03
2022-12-11T06:24:15.256Z,95949.50
2022-12-11T06:26:41.671Z,95943.78
2022-12-11T06:29:12.466Z,95944.56
2022-12-11T06:31:39.346Z,95936.06
2022-12-11T06:34:06.021Z,95937.13
2022-12-11T06:36:32.444Z,95935.44
2022-12-11T06:38:59.073Z,95938.50
2022-12-11T06:41:25.745Z,95929.25
2022-12-11T06:43:52.362Z,95941.72
2022-12-11T06:46:19.853Z,95942.84
2022-12-11T06:48:47.535Z,95948.56
2022-12-11T06:51:23.402Z,95950.44
2022-12-11T06:53:55.406Z,95950.91
2022-12-11T06:56:23.375Z,95954.88
2022-12-11T06:58:49.829Z,95945.41
2022-12-11T07:01:19.342Z,95946.16
2022-12-11T07:03:46.340Z,95945.25
2022-12-11T07:06:13.742Z,95955.03
2022-12-11T07:08:40.386Z,95943.69
2022-12-11T07:11:13.539Z,95951.19
2022-12-11T07:13:41.913Z,95945.16
2022-12-11T07:16:12.440Z,95955.97
2022-12-11T07:18:41.366Z,95953.56
2022-12-11T07:21:09.521Z,95958.59
2022-12-11T07:23:36.084Z,95953.47
2022-12-11T07:26:10.831Z,95945.78
2022-12-11T07:28:37.541Z,95954.25
2022-12-11T07:31:23.874Z,95944.53
2022-12-11T07:34:08.207Z,95952.53
2022-12-11T07:36:35.266Z,95942.25
2022-12-11T07:39:02.080Z,95948.00
2022-12-11T07:41:28.799Z,95942.91
2022-12-11T07:43:55.770Z,95948.19
2022-12-11T07:46:27.948Z,95946.34
2022-12-11T07:48:55.342Z,95938.91
2022-12-11T07:51:28.085Z,95933.88
2022-12-11T07:53:59.774Z,95934.84
2022-12-11T07:56:28.167Z,95943.66
2022-12-11T07:58:55.111Z,95963.13
2022-12-11T08:01:24.464Z,95942.97
2022-12-11T08:03:50.829Z,95953.44
2022-12-11T08:06:17.463Z,95950.13
2022-12-11T08:08:44.349Z,95958.13
2022-12-11T08:11:13.744Z,95964.09
2022-12-11T08:13:41.615Z,95970.00
2022-12-11T08:16:10.403Z,95968.28
2022-12-11T08:18:37.587Z,95973.06
2022-12-11T08:21:11.649Z,95969.75
2022-12-11T08:23:38.495Z,95972.31
2022-12-11T08:26:06.647Z,95970.63
2022-12-11T08:28:33.293Z,95976.66
2022-12-11T08:30:59.749Z,95972.44
2022-12-11T08:33:26.449Z,95973.13
2022-12-11T08:35:52.941Z,95978.78
2022-12-11T08:38:25.059Z,95976.44
2022-12-11T08:40:51.805Z,95982.72
2022-12-11T08:43:18.216Z,95980.53
2022-12-11T08:45:45.799Z,95982.50
2022-12-11T08:48:12.179Z,95980.38
2022-12-11T08:50:38.564Z,95977.56
2022-12-11T08:53:04.902Z,95970.16
2022-12-11T08:55:32.310Z,95957.56
2022-12-11T08:57:58.699Z,95971.75
2022-12-11T09:00:25.039Z,95967.22
2022-12-11T09:02:51.448Z,95975.22
2022-12-11T09:05:18.012Z,95976.41
2022-12-11T09:07:44.390Z,95980.91
2022-12-11T09:10:10.907Z,95980.03
2022-12-11T09:12:37.945Z,95981.81
2022-12-11T09:15:05.003Z,95973.34
2022-12-11T09:17:31.546Z,95970.78
2022-12-11T09:19:57.987Z,95969.91
2022-12-11T09:22:24.435Z,95970.28
2022-12-11T09:24:50.863Z,95953.38
2022-12-11T09:27:17.607Z,95974.41
2022-12-11T09:29:44.054Z,95980.41
2022-12-11T09:32:10.584Z,95982.16
2022-12-11T09:34:36.929Z,95981.34
2022-12-11T09:37:03.396Z,95977.28
2022-12-11T09:39:29.769Z,95975.47
2022-12-11T09:42:14.368Z,95978.03
2022-12-11T09:44:43.850Z,95974.06
2022-12-11T09:47:22.174Z,95961.03
2022-12-11T09:49:54.896Z,95965.25
2022-12-11T09:53:05.778Z,95965.66
2022-12-11T09:55:49.909Z,95956.56
2022-12-11T09:58:31.065Z,95957.28
2022-12-11T10:01:17.892Z,95954.66
2022-12-11T10:03:52.080Z,95945.56
2022-12-11T10:06:27.825Z,95936.53
2022-12-11T10:09:11.257Z,95943.44
2022-12-11T10:12:12.773Z,95935.38
2022-12-11T10:14:57.468Z,95937.09
2022-12-11T10:17:33.627Z,95929.50
2022-12-11T10:20:31.025Z,95929.47
2022-12-11T10:22:58.581Z,95926.78
2022-12-11T10:25:29.595Z,95926.59
2022-12-11T10:27:56.168Z,95924.75
2022-12-11T10:30:25.964Z,95929.13
2022-12-11T10:32:53.785Z,95928.44
2022-12-11T10:35:29.627Z,95924.63
2022-12-11T10:38:11.813Z,95933.00
2022-12-11T10:40:41.748Z,95915.53
2022-12-11T10:43:08.068Z,95917.66
2022-12-11T10:45:34.458Z,95912.63
2022-12-11T10:48:06.887Z,95908.72
2022-12-11T10:50:33.646Z,95911.31
2022-12-11T10:53:00.764Z,95902.53
2022-12-11T10:55:47.583Z,95901.38
2022-12-11T10:58:20.163Z,95905.50
2022-12-11T11:01:00.069Z,95906.19
2022-12-11T11:03:27.779Z,95909.38
2022-12-11T11:06:07.552Z,95899.34
2022-12-11T11:08:44.291Z,95895.16
2022-12-11T11:11:22.786Z,95899.31
2022-12-11T11:13:49.503Z,95888.28
2022-12-11T11:16:19.775Z,95888.41
2022-12-11T11:18:53.057Z,95888.59
2022-12-11T11:21:22.473Z,95879.88
2022-12-11T11:23:53.243Z,95877.47
2022-12-11T11:26:22.767Z,95877.97
2022-12-11T11:28:57.851Z,95871.34
2022-12-11T11:31:34.209Z,95859.31
2022-12-11T11:34:08.089Z,95845.91
2022-12-11T11:36:36.408Z,95842.06
2022-12-11T11:39:32.591Z,95843.88
2022-12-11T11:42:08.538Z,95831.75
2022-12-11T11:44:42.189Z,95828.44
2022-12-11T11:47:26.223Z,95825.88
2022-12-11T11:49:55.586Z,95816.19
2022-12-11T11:52:29.402Z,95818.16
2022-12-11T11:55:10.112Z,95815.66
2022-12-11T11:57:49.850Z,95819.72
2022-12-11T12:00:28.856Z,95828.78
2022-12-11T12:03:03.842Z,95827.56
2022-12-11T12:05:42.122Z,95822.53
2022-12-11T12:08:31.453Z,95813.84
2022-12-11T12:11:19.058Z,95810.22
2022-12-11T12:14:28.799Z,95814.03
2022-12-11T12:17:21.900Z,95807.69
2022-12-11T12:20:19.299Z,95802.44
2022-12-11T12:23:00.504Z,95802.19
2022-12-11T12:25:37.318Z,95812.44
2022-12-11T12:28:22.639Z,95810.31
2022-12-11T12:31:07.225Z,95815.97
2022-12-11T12:33:53.189Z,95815.44
2022-12-11T12:36:31.622Z,95817.34
2022-12-11T12:39:07.038Z,95817.00
2022-12-11T12:41:48.302Z,95823.00
2022-12-11T12:44:18.101Z,95815.25
2022-12-11T12:46:53.355Z,95814.56
2022-12-11T12:49:30.454Z,95820.28
2022-12-11T12:51:57.512Z,95810.56
2022-12-11T12:54:27.672Z,95822.94
2022-12-11T12:56:55.138Z,95809.97
2022-12-11T12:59:24.440Z,95818.34
2022-12-11T13:01:58.658Z,95810.47
2022-12-11T13:07:32.575Z,95814.41
2022-12-11T13:10:19.170Z,95805.19
2022-12-11T13:12:46.898Z,95801.41
2022-12-11T13:15:40.602Z,95811.09
2022-12-11T13:18:34.952Z,95804.28
2022-12-11T13:21:03.528Z,95810.97
2022-12-11T13:23:34.466Z,95807.69
2022-12-11T13:26:03.575Z,95806.84
2022-12-11T13:28:45.597Z,95817.13
2022-12-11T13:31:14.742Z,95818.91
2022-12-11T13:33:49.141Z,95809.84
2022-12-11T13:36:24.079Z,95814.88
2022-12-11T13:38:55.374Z,95812.25
2022-12-11T13:41:22.439Z,95806.47
2022-12-11T13:43:50.296Z,95812.16
2022-12-11T13:46:24.733Z,95813.06
2022-12-11T13:49:00.952Z,95814.50
2022-12-11T13:51:30.307Z,95816.00
2022-12-11T13:54:26.273Z,95818.38
2022-12-11T13:57:08.563Z,95815.69
2022-12-11T13:59:37.793Z,95823.25
2022-12-11T14:02:16.760Z,95824.03
2022-12-11T14:04:43.609Z,95832.97
2022-12-11T14:07:11.098Z,95832.97
2022-12-11T14:09:44.178Z,95832.00
2022-12-11T14:12:20.243Z,95832.88
2022-12-11T14:14:51.374Z,95832.69
2022-12-11T14:17:26.077Z,95823.34
2022-12-11T14:19:54.501Z,95831.53
2022-12-11T14:22:25.444Z,95831.53
2022-12-11T14:24:54.349Z,95836.44
2022-12-11T14:27:22.214Z,95835.59
2022-12-11T14:29:49.020Z,95822.81
2022-12-11T14:32:39.160Z,95833.94
2022-12-11T14:35:13.860Z,95827.19
2022-12-11T14:37:40.378Z,95832.81
2022-12-11T14:40:14.369Z,95832.88
2022-12-11T14:42:46.141Z,95826.03
2022-12-11T14:45:34.051Z,95832.06
2022-12-11T14:48:04.092Z,95846.34
2022-12-11T14:50:39.226Z,95839.53
2022-12-11T14:53:15.395Z,95829.38
2022-12-11T14:55:42.269Z,95832.91
2022-12-11T14:58:19.175Z,95836.94
2022-12-11T15:00:57.313Z,95839.56
2022-12-11T15:03:25.943Z,95841.00
2022-12-11T15:05:55.470Z,95845.06
2022-12-11T15:08:27.754Z,95835.16
2022-12-11T15:11:01.633Z,95836.03
2022-12-11T15:13:28.281Z,95833.31
2022-12-11T15:15:56.151Z,95833.28
2022-12-11T15:18:29.549Z,95834.06
2022-12-11T15:20:59.158Z,95831.34
2022-12-11T15:23:26.409Z,95828.66
2022-12-11T15:25:55.843Z,95825.88
2022-12-11T15:28:30.661Z,95827.41
2022-12-11T15:31:02.872Z,95820.31
2022-12-11T15:33:34.299Z,95826.03
2022-12-11T15:36:04.641Z,95830.94
2022-12-11T15:38:37.409Z,95836.69
2022-12-11T15:41:04.502Z,95833.25
2022-12-11T15:43:34.586Z,95826.66
2022-12-11T15:46:02.875Z,95839.34
2022-12-11T15:48:29.238Z,95830.94
2022-12-11T15:50:55.823Z,95840.34
2022-12-11T15:53:22.494Z,95851.41
2022-12-11T15:55:49.300Z,95850.66
2022-12-11T15:58:18.985Z,95846.56
2022-12-11T16:00:45.659Z,95855.03
2022-12-11T16:03:14.318Z,95844.22
2022-12-11T16:05:43.107Z,95853.69
2022-12-11T16:08:17.308Z,95845.50
2022-12-11T16:10:44.941Z,95853.19
2022-12-11T16:13:12.796Z,95856.22
2022-12-11T16:15:41.370Z,95851.97
2022-12-11T16:18:10.401Z,95855.53
2022-12-11T16:20:38.156Z,95847.50
2022-12-11T16:23:04.755Z,95857.47
2022-12-11T16:25:32.630Z,95860.28
2022-12-11T16:28:01.484Z,95853.25
2022-12-11T16:30:29.225Z,95860.78
2022-12-11T16:32:56.003Z,95860.78
2022-12-11T16:35:22.747Z,95859.19
2022-12-11T16:37:51.091Z,95848.63
2022-12-11T16:40:18.158Z,95859.03
2022-12-11T16:42:44.975Z,95857.50
2022-12-11T16:45:17.200Z,95859.13
2022-12-11T16:47:43.707Z,95868.53
2022-12-11T16:50:12.411Z,95865.06
2022-12-11T16:52:38.956Z,95863.75
2022-12-11T16:55:05.890Z,95864.94
2022-12-11T16:57:32.441Z,95862.50
2022-12-11T16:59:58.838Z,95868.53
2022-12-11T17:02:25.303Z,95873.47
2022-12-11T17:04:53.998Z,95862.75
2022-12-11T17:07:20.658Z,95871.91
2022-12-11T17:09:47.177Z,95868.59
2022-12-11T17:12:13.607Z,95871.38
2022-12-11T17:14:39.924Z,95873.97
2022-12-11T17:17:06.325Z,95880.72
2022-12-11T17:19:33.010Z,95864.91
2022-12-11T17:21:59.523Z,95869.25
2022-12-11T17:24:25.994Z,95872.25
2022-12-11T17:26:52.748Z,95869.78
2022-12-11T17:29:19.894Z,95870.56
2022-12-11T17:31:46.233Z,95856.81
2022-12-11T17:34:12.570Z,95879.78
2022-12-11T17:36:39.039Z,95879.19
2022-12-11T17:39:05.389Z,95871.59
2022-12-11T17:41:31.883Z,95878.94
2022-12-11T17:43:58.278Z,95882.44
2022-12-11T17:46:24.939Z,95872.56
2022-12-11T17:48:51.362Z,95840.88
2022-12-11T17:51:23.675Z,95881.78
2022-12-11T17:53:51.233Z,95875.78
2022-12-11T17:56:19.315Z,95883.22
2022-12-11T17:58:45.756Z,95886.47
2022-12-11T18:01:13.112Z,95886.41
2022-12-11T18:03:40.176Z,95880.31
2022-12-11T18:06:13.631Z,95893.94
2022-12-11T18:08:40.967Z,95896.38
2022-12-11T18:11:10.749Z,95894.59
2022-12-11T18:13:37.248Z,95894.53
2022-12-11T18:16:07.879Z,95899.53
2022-12-11T18:18:34.586Z,95896.91
2022-12-11T18:21:01.483Z,95892.78
2022-12-11T18:23:27.948Z,95892.00
2022-12-11T18:25:54.738Z,95894.41
2022-12-11T18:28:21.201Z,95900.19
2022-12-11T18:30:47.649Z,95890.00
2022-12-11T18:33:14.522Z,95888.22
2022-12-11T18:35:41.267Z,95893.88
2022-12-11T18:38:07.812Z,95895.53
2022-12-11T18:40:34.330Z,95889.81
2022-12-11T18:43:00.657Z,95893.31
2022-12-11T18:45:27.173Z,95897.69
2022-12-11T18:47:55.553Z,95890.81
2022-12-11T18:50:22.021Z,95882.19
2022-12-11T18:52:52.822Z,95902.59
2022-12-11T18:55:19.261Z,95895.53
2022-12-11T18:57:45.690Z,95897.28
2022-12-11T19:00:13.134Z,95909.22
2022-12-11T19:02:39.768Z,95907.69
2022-12-11T19:05:06.386Z,95898.25
2022-12-11T19:07:32.778Z,95902.66
2022-12-11T19:09:59.173Z,95904.19
2022-12-11T19:12:25.650Z,95900.44
2022-12-11T19:14:52.040Z,95901.31
2022-12-11T19:17:18.637Z,95900.13
2022-12-11T19:19:47.239Z,95905.00
2022-12-11T19:22:14.907Z,95900.72
2022-12-11T19:24:41.251Z,95896.41
2022-12-11T19:27:13.263Z,95893.09
2022-12-11T19:29:40.208Z,95908.88
2022-12-11T19:32:06.682Z,95893.28
2022-12-11T19:34:33.335Z,95905.06
2022-12-11T19:37:00.136Z,95907.44
2022-12-11T19:39:26.528Z,95904.69
2022-12-11T19:41:52.866Z,95905.25
2022-12-11T19:44:19.332Z,95905.56
2022-12-11T19:46:45.849Z,95905.69
2022-12-11T19:49:12.583Z,95907.84
2022-12-11T19:51:40.873Z,95913.72
2022-12-11T19:54:09.038Z,95914.59
2022-12-11T19:56:35.683Z,95919.41
2022-12-11T19:59:04.074Z,95917.66
2022-12-11T20:01:33.923Z,95919.94
2022-12-11T20:04:03.536Z,95915.63
2022-12-11T20:06:32.386Z,95917.97
2022-12-11T20:09:00.615Z,95919.69
2022-12-11T20:11:27.327Z,95918.84
2022-12-11T20:13:55.525Z,95908.00
2022-12-11T20:16:45.867Z,95921.41
2022-12-11T20:19:10.143Z,95919.25
2022-12-11T20:21:36.569Z,95918.50
2022-12-11T20:24:03.116Z,95927.06
2022-12-11T20:26:31.785Z,95927.44
2022-12-11T20:28:58.316Z,95920.00
2022-12-11T20:31:25.823Z,95913.25
2022-12-11T20:33:55.460Z,95916.53
2022-12-11T20:36:23.293Z,95913.34
2022-12-11T20:38:49.895Z,95920.13
2022-12-11T20:41:19.689Z,95912.59
2022-12-11T20:43:46.592Z,95915.91
2022-12-11T20:46:15.045Z,95915.84
2022-12-11T20:48:43.226Z,95910.59
2022-12-11T20:51:11.789Z,95914.03
2022-12-11T20:53:38.445Z,95912.53
2022-12-11T20:56:13.365Z,95910.09
2022-12-11T20:58:40.758Z,95905.31
2022-12-11T21:01:07.733Z,95908.44
2022-12-11T21:03:40.383Z,95903.56
2022-12-11T21:06:09.246Z,95904.66
2022-12-11T21:08:35.565Z,95902.94
2022-12-11T21:11:02.549Z,95892.81
2022-12-11T21:13:28.934Z,95894.53
2022-12-11T21:15:56.772Z,95894.75
2022-12-11T21:18:23.378Z,95890.22
2022-12-11T21:20:49.725Z,95891.94
2022-12-11T21:23:16.143Z,95898.06
2022-12-11T21:25:42.788Z,95896.03
2022-12-11T21:28:09.269Z,95896.94
2022-12-11T21:30:39.961Z,95887.09
2022-12-11T21:33:06.339Z,95890.44
2022-12-11T21:35:32.683Z,95895.69
2022-12-11T21:37:59.186Z,95887.16
2022-12-11T21:40:25.674Z,95894.47
2022-12-11T21:42:52.098Z,95892.81
2022-12-11T21:48:05.354Z,95890.31
2022-12-11T21:50:31.838Z,95891.94
2022-12-11T21:52:58.897Z,95888.50
2022-12-11T21:55:25.266Z,95892.03
2022-12-11T21:57:53.925Z,95888.66
2022-12-11T22:00:20.657Z,95891.81
2022-12-11T22:02:47.388Z,95895.03
2022-12-11T22:05:14.213Z,95889.41
2022-12-11T22:07:41.006Z,95887.06
2022-12-11T22:10:07.827Z,95893.72
2022-12-11T22:12:34.187Z,95840.09
2022-12-11T22:15:00.531Z,95890.38
2022-12-11T22:17:26.897Z,95890.53
2022-12-11T22:19:53.550Z,95888.94
2022-12-11T22:22:20.098Z,95881.09
2022-12-11T22:24:46.655Z,95891.44
2022-12-11T22:27:13.122Z,95891.94
2022-12-11T22:29:39.558Z,95889.22
2022-12-11T22:32:05.898Z,95887.47
2022-12-11T22:34:32.354Z,95890.25
2022-12-11T22:36:58.814Z,95875.13
2022-12-11T22:39:25.196Z,95887.72
2022-12-11T22:41:51.605Z,95892.88
2022-12-11T22:44:21.026Z,95888.78
2022-12-11T22:46:50.239Z,95892.28
2022-12-11T22:49:18.622Z,95890.31
2022-12-11T22:51:45.331Z,95884.97
2022-12-11T22:54:11.781Z,95876.63
2022-12-11T22:56:38.581Z,95893.88
2022-12-11T22:59:04.986Z,95892.97
2022-12-11T23:01:31.390Z,95895.38
2022-12-11T23:03:57.806Z,95889.56
2022-12-11T23:06:25.251Z,95900.34
2022-12-11T23:08:54.886Z,95895.22
2022-12-11T23:11:25.831Z,95899.41
2022-12-11T23:13:53.778Z,95896.94
2022-12-11T23:16:22.044Z,95892.06
2022-12-11T23:18:48.497Z,95890.44
2022-12-11T23:21:14.910Z,95898.81
2022-12-11T23:23:41.449Z,95897.03
2022-12-11T23:26:10.503Z,95900.13
2022-12-11T23:28:37.015Z,95899.47
2022-12-11T23:31:04.474Z,95908.00
2022-12-11T23:33:31.135Z,95911.25
2022-12-11T23:35:58.628Z,95907.88
2022-12-11T23:38:25.132Z,95901.91
2022-12-11T23:40:51.564Z,95903.44
2022-12-11T23:43:18.118Z,95906.59
2022-12-11T23:45:45.532Z,95907.44
2022-12-11T23:48:12.720Z,95909.06
2022-12-11T23:50:40.333Z,95910.88
2022-12-11T23:53:06.873Z,95902.50
2022-12-11T23:55:33.204Z,95906.81
2022-12-11T23:57:59.588Z,95906.81
